TUX1730 DTTA-LIRN
Flight info
| Callsign | TUX1730 |
|---|---|
| Flight time | N/A |
| Altitude | 35000 |
| Route | ICANI3C ICANI UB979 SIRVI UM725 SUSIP DCT ADUKA DCT DORAS/N0438F360 DCT SOR |
| Aircraft | A320/M-SDE3FGHIRWY/LB1 |
Departure
| Time | 2026-04-28 18:23 |
|---|---|
| Airport | Tunis Carthage International Airport (DTTA) |
Arrival
| Time | N/A |
|---|---|
| Airport | Naples International Airport (LIRN) |
| Time | Latitude | Longitude | Altitude | Speed | Heading |
|---|---|---|---|---|---|
| 2026-04-28 18:03 | 36.84842 | 10.22104 | 29 ft | 0 kts | 255° |
| 2026-04-28 18:19 | 36.84850 | 10.22073 | 30 ft | 8 kts | 318° |
| 2026-04-28 18:19 | 36.84881 | 10.22119 | 30 ft | 12 kts | 83° |
| 2026-04-28 18:20 | 36.84882 | 10.22247 | 30 ft | 16 kts | 99° |
| 2026-04-28 18:20 | 36.84896 | 10.22365 | 30 ft | 16 kts | 26° |
| 2026-04-28 18:20 | 36.85011 | 10.22349 | 31 ft | 16 kts | 296° |
| 2026-04-28 18:20 | 36.85048 | 10.22206 | 31 ft | 21 kts | 299° |
| 2026-04-28 18:21 | 36.85120 | 10.22023 | 30 ft | 23 kts | 293° |
| 2026-04-28 18:21 | 36.85181 | 10.21838 | 30 ft | 24 kts | 292° |
| 2026-04-28 18:21 | 36.85278 | 10.21712 | 30 ft | 20 kts | 10° |
| 2026-04-28 18:21 | 36.85403 | 10.21777 | 29 ft | 17 kts | 29° |
| 2026-04-28 18:22 | 36.85429 | 10.21823 | 32 ft | 2 kts | 64° |
| 2026-04-28 18:22 | 36.85396 | 10.21863 | 32 ft | 12 kts | 126° |
| 2026-04-28 18:22 | 36.85377 | 10.21918 | 32 ft | 25 kts | 112° |
| 2026-04-28 18:22 | 36.85211 | 10.22414 | 33 ft | 96 kts | 112° |
| 2026-04-28 18:23 | 36.84879 | 10.23426 | 43 ft | 148 kts | 112° |
| 2026-04-28 18:23 | 36.84502 | 10.24535 | 623 ft | 135 kts | 112° |
| 2026-04-28 18:23 | 36.84139 | 10.25620 | 1021 ft | 138 kts | 113° |
| 2026-04-28 18:23 | 36.83769 | 10.26736 | 1440 ft | 140 kts | 112° |
| 2026-04-28 18:24 | 36.83390 | 10.27879 | 1815 ft | 149 kts | 115° |
| 2026-04-28 18:24 | 36.83108 | 10.28727 | 1954 ft | 164 kts | 113° |
| 2026-04-28 18:24 | 36.81971 | 10.30196 | 2048 ft | 205 kts | 162° |
| 2026-04-28 18:24 | 36.80521 | 10.30093 | 2571 ft | 219 kts | 206° |
| 2026-04-28 18:25 | 36.79465 | 10.28754 | 3275 ft | 224 kts | 248° |
| 2026-04-28 18:25 | 36.79373 | 10.26848 | 4006 ft | 226 kts | 289° |
| 2026-04-28 18:25 | 36.80301 | 10.25290 | 4749 ft | 229 kts | 325° |
| 2026-04-28 18:26 | 36.83208 | 10.23640 | 6328 ft | 232 kts | 341° |
| 2026-04-28 18:26 | 36.84819 | 10.23497 | 7037 ft | 238 kts | 11° |
| 2026-04-28 18:26 | 36.86373 | 10.24340 | 7514 ft | 258 kts | 37° |
| 2026-04-28 18:26 | 36.87798 | 10.25878 | 7860 ft | 281 kts | 40° |
| 2026-04-28 18:27 | 36.89307 | 10.27513 | 8505 ft | 291 kts | 39° |
| 2026-04-28 18:27 | 36.90854 | 10.29166 | 9295 ft | 295 kts | 39° |
| 2026-04-28 18:27 | 36.92432 | 10.30840 | 10086 ft | 299 kts | 39° |
| 2026-04-28 18:27 | 36.94066 | 10.32572 | 10469 ft | 320 kts | 38° |
| 2026-04-28 18:28 | 36.95823 | 10.34438 | 10738 ft | 341 kts | 38° |
| 2026-04-28 18:28 | 36.97658 | 10.36389 | 11337 ft | 350 kts | 38° |
| 2026-04-28 18:28 | 36.99503 | 10.38350 | 12028 ft | 355 kts | 38° |
| 2026-04-28 18:28 | 37.01399 | 10.40365 | 12746 ft | 360 kts | 37° |
| 2026-04-28 18:29 | 37.03315 | 10.42401 | 13472 ft | 364 kts | 37° |
| 2026-04-28 18:29 | 37.05261 | 10.44470 | 14140 ft | 368 kts | 37° |
| 2026-04-28 18:29 | 37.07224 | 10.46561 | 14778 ft | 372 kts | 37° |
| 2026-04-28 18:29 | 37.09212 | 10.48679 | 15407 ft | 377 kts | 37° |
| 2026-04-28 18:30 | 37.11217 | 10.50815 | 16027 ft | 381 kts | 37° |
| 2026-04-28 18:30 | 37.11900 | 10.51543 | 16237 ft | 382 kts | 37° |
| 2026-04-28 18:30 | 37.15288 | 10.55172 | 17246 ft | 389 kts | 37° |
| 2026-04-28 18:30 | 37.17360 | 10.57392 | 17863 ft | 393 kts | 37° |
| 2026-04-28 18:31 | 37.19451 | 10.59632 | 18439 ft | 397 kts | 37° |
| 2026-04-28 18:31 | 37.21561 | 10.61886 | 18986 ft | 400 kts | 37° |
| 2026-04-28 18:31 | 37.23686 | 10.64159 | 19550 ft | 403 kts | 37° |
| 2026-04-28 18:31 | 37.25825 | 10.66451 | 20124 ft | 405 kts | 37° |
| 2026-04-28 18:32 | 37.27974 | 10.68758 | 20693 ft | 408 kts | 38° |
| 2026-04-28 18:32 | 37.30135 | 10.71084 | 21265 ft | 410 kts | 38° |
| 2026-04-28 18:32 | 37.32307 | 10.73425 | 21831 ft | 413 kts | 38° |
| 2026-04-28 18:32 | 37.34501 | 10.75788 | 22393 ft | 416 kts | 38° |
| 2026-04-28 18:33 | 37.36679 | 10.78132 | 22933 ft | 418 kts | 38° |
| 2026-04-28 18:33 | 37.38894 | 10.80518 | 23469 ft | 421 kts | 38° |
| 2026-04-28 18:33 | 37.41126 | 10.82926 | 23927 ft | 424 kts | 38° |
| 2026-04-28 18:33 | 37.43367 | 10.85345 | 24366 ft | 426 kts | 38° |
| 2026-04-28 18:34 | 37.45627 | 10.87787 | 24812 ft | 428 kts | 38° |
| 2026-04-28 18:34 | 37.47890 | 10.90237 | 25243 ft | 430 kts | 38° |
| 2026-04-28 18:34 | 37.50163 | 10.92701 | 25659 ft | 432 kts | 38° |
| 2026-04-28 18:34 | 37.52445 | 10.95175 | 26070 ft | 434 kts | 38° |
| 2026-04-28 18:35 | 37.54742 | 10.97664 | 26471 ft | 436 kts | 38° |
| 2026-04-28 18:35 | 37.57053 | 11.00166 | 26860 ft | 439 kts | 38° |
| 2026-04-28 18:35 | 37.59371 | 11.02677 | 27241 ft | 441 kts | 38° |
| 2026-04-28 18:35 | 37.61700 | 11.05209 | 27625 ft | 443 kts | 38° |
| 2026-04-28 18:36 | 37.64036 | 11.07756 | 27998 ft | 445 kts | 38° |
| 2026-04-28 18:36 | 37.66382 | 11.10314 | 28362 ft | 447 kts | 38° |
| 2026-04-28 18:36 | 37.68771 | 11.12847 | 28714 ft | 449 kts | 36° |
| 2026-04-28 18:36 | 37.71240 | 11.15264 | 29059 ft | 450 kts | 34° |
| 2026-04-28 18:37 | 37.73777 | 11.17596 | 29398 ft | 452 kts | 33° |
| 2026-04-28 18:37 | 37.76349 | 11.19889 | 29728 ft | 454 kts | 32° |
| 2026-04-28 18:37 | 37.78936 | 11.22189 | 30046 ft | 456 kts | 33° |
| 2026-04-28 18:37 | 37.81526 | 11.24527 | 30309 ft | 458 kts | 33° |
| 2026-04-28 18:38 | 37.84108 | 11.26903 | 30570 ft | 460 kts | 34° |
| 2026-04-28 18:38 | 37.86692 | 11.29312 | 30825 ft | 461 kts | 34° |
| 2026-04-28 18:38 | 37.89278 | 11.31742 | 31072 ft | 463 kts | 34° |
| 2026-04-28 18:38 | 37.91844 | 11.34158 | 31357 ft | 463 kts | 34° |
| 2026-04-28 18:39 | 37.94440 | 11.36603 | 31710 ft | 462 kts | 34° |
| 2026-04-28 18:39 | 37.97028 | 11.39033 | 32050 ft | 461 kts | 34° |
| 2026-04-28 18:39 | 37.99605 | 11.41445 | 32394 ft | 460 kts | 34° |